createdAt,value
2022-12-23T00:00:41.453Z,78.79
2022-12-23T00:03:08.567Z,79.01
2022-12-23T00:05:38.093Z,79.19
2022-12-23T00:08:06.342Z,79.39
2022-12-23T00:10:34.014Z,79.48
2022-12-23T00:13:19.544Z,79.59
2022-12-23T00:15:46.367Z,79.63
2022-12-23T00:18:13.176Z,79.63
2022-12-23T00:20:39.961Z,79.58
2022-12-23T00:23:07.139Z,79.61
2022-12-23T00:25:42.504Z,79.51
2022-12-23T00:28:13.832Z,79.42
2022-12-23T00:30:55.768Z,79.35
2022-12-23T00:33:43.631Z,79.28
2022-12-23T00:36:27.805Z,79.22
2022-12-23T00:39:14.633Z,79.21
2022-12-23T00:42:00.422Z,79.21
2022-12-23T00:44:27.573Z,79.20
2022-12-23T00:46:54.431Z,79.15
2022-12-23T00:49:40.097Z,79.19
2022-12-23T00:52:10.343Z,79.18
2022-12-23T00:54:37.175Z,79.21
2022-12-23T00:57:04.181Z,79.31
2022-12-23T00:59:30.988Z,79.30
2022-12-23T01:02:16.567Z,79.30
2022-12-23T01:05:02.038Z,79.31
2022-12-23T01:07:29.098Z,79.31
2022-12-23T01:09:55.907Z,79.34
2022-12-23T01:12:22.959Z,79.45
2022-12-23T01:14:49.913Z,79.42
2022-12-23T01:17:16.936Z,79.40
2022-12-23T01:19:43.870Z,79.44
2022-12-23T01:22:10.701Z,79.55
2022-12-23T01:24:37.562Z,79.53
2022-12-23T01:27:04.397Z,79.56
2022-12-23T01:29:31.321Z,79.60
2022-12-23T01:31:58.160Z,79.63
2022-12-23T01:34:26.585Z,79.68
2022-12-23T01:36:55.301Z,79.83
2022-12-23T01:39:22.066Z,79.93
2022-12-23T01:42:07.493Z,80.01
2022-12-23T01:44:55.379Z,80.09
2022-12-23T01:47:28.158Z,80.17
2022-12-23T01:50:00.700Z,80.20
2022-12-23T01:52:28.616Z,80.22
2022-12-23T01:54:56.656Z,80.35
2022-12-23T01:57:24.152Z,80.40
2022-12-23T02:00:10.037Z,80.50
2022-12-23T02:02:56.898Z,80.45
2022-12-23T02:05:24.330Z,80.49
2022-12-23T02:08:11.982Z,80.42
2022-12-23T02:11:25.016Z,80.40
2022-12-23T02:14:27.245Z,80.37
2022-12-23T02:17:08.035Z,80.44
2022-12-23T02:19:56.272Z,80.47
2022-12-23T02:22:53.252Z,80.57
2022-12-23T02:25:20.003Z,80.46
2022-12-23T02:28:14.746Z,80.44
2022-12-23T02:30:51.115Z,80.35
2022-12-23T02:34:06.049Z,80.24
2022-12-23T02:37:07.810Z,80.08
2022-12-23T02:39:56.516Z,80.04
2022-12-23T02:42:28.789Z,79.99
2022-12-23T02:45:07.510Z,80.00
2022-12-23T02:47:50.164Z,80.00
2022-12-23T02:50:26.407Z,79.99
2022-12-23T02:52:56.577Z,79.93
2022-12-23T02:55:29.885Z,79.93
2022-12-23T02:57:59.794Z,79.88
2022-12-23T03:00:27.021Z,79.93
2022-12-23T03:02:53.971Z,79.88
2022-12-23T03:05:29.218Z,79.95
2022-12-23T03:08:02.604Z,79.87
2022-12-23T03:10:40.915Z,79.87
2022-12-23T03:13:35.328Z,79.88
2022-12-23T03:16:20.420Z,79.80
2022-12-23T03:19:03.497Z,79.75
2022-12-23T03:21:53.181Z,79.85
2022-12-23T03:24:44.917Z,79.76
2022-12-23T03:27:27.215Z,79.78
2022-12-23T03:30:06.645Z,79.80
2022-12-23T03:32:43.953Z,79.68
2022-12-23T03:35:12.999Z,79.54
2022-12-23T03:37:44.893Z,79.53
2022-12-23T03:40:37.995Z,79.67
2022-12-23T03:43:11.458Z,79.61
2022-12-23T03:45:44.584Z,79.61
2022-12-23T03:48:23.021Z,79.45
2022-12-23T03:50:54.578Z,79.38
2022-12-23T03:53:46.763Z,79.32
2022-12-23T03:56:20.358Z,79.35
2022-12-23T03:58:58.574Z,79.29
2022-12-23T04:02:04.690Z,79.19
2022-12-23T04:04:43.677Z,79.10
2022-12-23T04:07:12.193Z,79.09
2022-12-23T04:09:40.189Z,79.08
2022-12-23T04:12:07.708Z,79.06
2022-12-23T04:14:35.660Z,79.04
2022-12-23T04:17:02.816Z,78.98
2022-12-23T04:19:29.620Z,78.87
2022-12-23T04:22:00.101Z,78.84
2022-12-23T04:24:26.911Z,78.80
2022-12-23T04:26:53.743Z,78.88
2022-12-23T04:29:20.534Z,78.74
2022-12-23T04:31:47.429Z,78.82
2022-12-23T04:34:14.326Z,78.82
2022-12-23T04:36:41.120Z,78.84
2022-12-23T04:39:09.094Z,78.94
2022-12-23T04:41:35.896Z,78.71
2022-12-23T04:44:02.715Z,78.61
2022-12-23T04:46:29.583Z,78.61
2022-12-23T04:48:56.506Z,78.52
2022-12-23T04:51:23.767Z,78.42
2022-12-23T04:53:50.620Z,78.40
2022-12-23T04:56:17.475Z,78.44
2022-12-23T04:58:44.241Z,78.40
2022-12-23T05:01:12.188Z,78.30
2022-12-23T05:03:40.214Z,78.16
2022-12-23T05:06:07.219Z,78.09
2022-12-23T05:08:34.475Z,78.10
2022-12-23T05:11:01.310Z,78.06
2022-12-23T05:13:28.128Z,78.07
2022-12-23T05:15:55.265Z,78.09
2022-12-23T05:18:22.960Z,78.06
2022-12-23T05:20:50.123Z,78.05
2022-12-23T05:23:16.919Z,78.09
2022-12-23T05:25:43.743Z,78.12
2022-12-23T05:28:10.881Z,78.11
2022-12-23T05:30:37.723Z,78.08
2022-12-23T05:33:04.604Z,78.08
2022-12-23T05:35:31.416Z,78.02
2022-12-23T05:37:58.409Z,77.96
2022-12-23T05:40:27.823Z,78.01
2022-12-23T05:42:57.987Z,77.98
2022-12-23T05:45:24.875Z,77.96
2022-12-23T05:47:51.686Z,77.95
2022-12-23T05:50:18.847Z,77.95
2022-12-23T05:52:45.817Z,77.91
2022-12-23T05:55:12.681Z,77.86
2022-12-23T05:57:39.513Z,77.89
2022-12-23T06:00:06.998Z,77.93
2022-12-23T06:02:34.045Z,77.97
2022-12-23T06:05:00.990Z,77.96
2022-12-23T06:07:27.762Z,77.98
2022-12-23T06:09:54.557Z,78.06
2022-12-23T06:12:21.348Z,78.03
2022-12-23T06:14:48.118Z,78.13
2022-12-23T06:17:14.956Z,78.18
2022-12-23T06:19:41.828Z,78.21
2022-12-23T06:22:08.643Z,78.26
2022-12-23T06:24:35.477Z,78.29
2022-12-23T06:27:02.319Z,78.29
2022-12-23T06:29:29.358Z,78.29
2022-12-23T06:31:56.176Z,78.34
2022-12-23T06:34:22.970Z,78.39
2022-12-23T06:36:49.851Z,78.44
2022-12-23T06:39:16.710Z,78.39
2022-12-23T06:41:43.492Z,78.32
2022-12-23T06:44:10.293Z,78.26
2022-12-23T06:46:37.316Z,78.28
2022-12-23T06:49:09.141Z,78.25
2022-12-23T06:51:39.719Z,78.20
2022-12-23T06:54:06.528Z,78.21
2022-12-23T06:56:34.009Z,78.35
2022-12-23T06:59:00.833Z,78.43
2022-12-23T07:01:27.798Z,78.43
2022-12-23T07:03:54.670Z,78.39
2022-12-23T07:06:21.530Z,78.27
2022-12-23T07:08:48.382Z,78.31
2022-12-23T07:11:15.238Z,78.24
2022-12-23T07:13:42.055Z,78.43
2022-12-23T07:16:09.570Z,78.53
2022-12-23T07:18:36.433Z,78.49
2022-12-23T07:21:03.729Z,78.57
2022-12-23T07:23:31.035Z,78.57
2022-12-23T07:25:57.927Z,78.55
2022-12-23T07:28:24.851Z,78.43
2022-12-23T07:30:51.683Z,78.48
2022-12-23T07:33:18.479Z,78.42
2022-12-23T07:35:45.270Z,78.37
2022-12-23T07:38:12.142Z,78.42
2022-12-23T07:40:39.226Z,78.42
2022-12-23T07:43:06.100Z,78.40
2022-12-23T07:45:33.007Z,78.34
2022-12-23T07:48:01.573Z,78.37
2022-12-23T07:50:28.598Z,78.31
2022-12-23T07:52:55.936Z,78.36
2022-12-23T07:55:23.166Z,78.34
2022-12-23T07:57:53.684Z,78.33
2022-12-23T08:00:20.825Z,78.39
2022-12-23T08:02:48.235Z,78.27
2022-12-23T08:05:15.778Z,78.20
2022-12-23T08:07:45.068Z,78.08
2022-12-23T08:10:13.084Z,78.10
2022-12-23T08:12:39.918Z,78.19
2022-12-23T08:15:08.279Z,78.13
2022-12-23T08:17:35.065Z,78.02
2022-12-23T08:20:02.217Z,78.07
2022-12-23T08:22:31.425Z,78.10
2022-12-23T08:24:59.454Z,78.06
2022-12-23T08:27:26.620Z,78.08
2022-12-23T08:29:53.416Z,78.04
2022-12-23T08:32:20.215Z,78.03
2022-12-23T08:34:47.039Z,78.06
2022-12-23T08:37:14.051Z,78.06
2022-12-23T08:39:40.979Z,77.94
2022-12-23T08:42:08.576Z,77.84
2022-12-23T08:44:35.417Z,77.87
2022-12-23T08:47:02.248Z,77.87
2022-12-23T08:49:29.128Z,77.91
2022-12-23T08:51:55.985Z,77.84
2022-12-23T08:54:23.882Z,77.70
2022-12-23T08:56:50.801Z,77.66
2022-12-23T08:59:19.549Z,77.63
2022-12-23T09:01:47.998Z,77.54
2022-12-23T09:04:15.645Z,77.44
2022-12-23T09:06:42.981Z,77.37
2022-12-23T09:09:12.455Z,77.28
2022-12-23T09:11:39.257Z,77.21
2022-12-23T09:14:08.783Z,77.12
2022-12-23T09:16:36.406Z,77.06
2022-12-23T09:19:03.889Z,77.08
2022-12-23T09:21:30.739Z,77.08
2022-12-23T09:23:57.596Z,77.11
2022-12-23T09:26:27.266Z,77.12
2022-12-23T09:28:54.555Z,77.20
2022-12-23T09:31:22.418Z,77.29
2022-12-23T09:33:51.114Z,77.32
2022-12-23T09:36:18.511Z,77.27
2022-12-23T09:38:45.470Z,77.13
2022-12-23T09:41:12.257Z,77.12
2022-12-23T09:44:10.073Z,77.03
2022-12-23T09:46:44.181Z,77.08
2022-12-23T09:49:14.153Z,77.07
2022-12-23T09:51:40.975Z,77.00
2022-12-23T09:54:28.986Z,76.98
2022-12-23T09:57:00.561Z,76.96
2022-12-23T09:59:45.519Z,77.01
2022-12-23T10:02:30.817Z,77.00
2022-12-23T10:05:14.197Z,76.96
2022-12-23T10:08:01.559Z,76.92
2022-12-23T10:10:52.511Z,77.00
2022-12-23T10:13:29.841Z,77.04
2022-12-23T10:16:03.445Z,77.10
2022-12-23T10:18:53.547Z,77.17
2022-12-23T10:21:46.968Z,77.25
2022-12-23T10:24:33.729Z,77.31
2022-12-23T10:27:15.516Z,77.38
2022-12-23T10:29:42.580Z,77.37
2022-12-23T10:32:21.328Z,77.39
2022-12-23T10:35:22.957Z,77.45
2022-12-23T10:38:22.160Z,77.52
2022-12-23T10:41:13.899Z,77.62
2022-12-23T10:44:20.471Z,77.65
2022-12-23T10:47:15.035Z,77.73
2022-12-23T10:49:50.907Z,77.91
2022-12-23T10:52:34.731Z,77.87
2022-12-23T10:55:01.561Z,77.87
2022-12-23T10:57:29.649Z,77.84
2022-12-23T10:59:57.329Z,77.78
2022-12-23T11:02:24.236Z,77.89
2022-12-23T11:04:51.182Z,77.88
2022-12-23T11:07:44.271Z,77.74
2022-12-23T11:10:19.442Z,77.60
2022-12-23T11:12:49.790Z,77.60
2022-12-23T11:15:28.668Z,77.59
2022-12-23T11:18:05.240Z,77.52
2022-12-23T11:20:33.644Z,77.62
2022-12-23T11:23:03.019Z,77.61
2022-12-23T11:25:32.789Z,77.56
2022-12-23T11:28:08.225Z,77.58
2022-12-23T11:30:50.287Z,77.51
2022-12-23T11:33:31.362Z,77.50
2022-12-23T11:36:04.803Z,77.43
2022-12-23T11:38:32.676Z,77.47
2022-12-23T11:40:59.825Z,77.45
2022-12-23T11:43:28.448Z,77.45
2022-12-23T11:46:15.554Z,77.50
2022-12-23T11:48:42.688Z,77.53
2022-12-23T11:51:09.465Z,77.50
2022-12-23T11:53:36.796Z,77.41
2022-12-23T11:56:08.156Z,77.33
2022-12-23T11:58:46.203Z,77.38
2022-12-23T12:01:20.249Z,77.44
2022-12-23T12:04:09.271Z,77.38
2022-12-23T12:06:41.885Z,77.46
2022-12-23T12:09:13.085Z,77.52
2022-12-23T12:11:56.595Z,77.50
2022-12-23T12:14:51.595Z,77.51
2022-12-23T12:17:48.216Z,77.33
2022-12-23T12:20:24.136Z,77.36
2022-12-23T12:23:03.164Z,77.44
2022-12-23T12:25:44.948Z,77.36
2022-12-23T12:28:19.131Z,77.28
2022-12-23T12:30:57.854Z,77.29
2022-12-23T12:33:35.996Z,77.29
2022-12-23T12:36:36.296Z,77.29
2022-12-23T12:39:04.031Z,77.26
2022-12-23T12:41:38.137Z,77.26
2022-12-23T12:44:48.541Z,77.37
2022-12-23T12:47:52.547Z,77.37
2022-12-23T12:50:29.379Z,77.45
2022-12-23T12:53:02.317Z,77.36
2022-12-23T12:55:35.437Z,77.36
2022-12-23T12:58:05.411Z,77.36
2022-12-23T13:00:43.566Z,77.41
2022-12-23T13:03:30.855Z,77.42
2022-12-23T13:06:27.079Z,77.47
2022-12-23T13:09:16.999Z,77.38
2022-12-23T13:12:34.037Z,77.39
2022-12-23T13:15:29.582Z,77.35
2022-12-23T13:18:05.366Z,77.33
2022-12-23T13:20:40.669Z,77.31
2022-12-23T13:23:41.802Z,77.26
2022-12-23T13:26:08.593Z,77.23
2022-12-23T13:28:55.906Z,77.18
2022-12-23T13:31:57.912Z,77.26
2022-12-23T13:35:00.963Z,77.32
2022-12-23T13:37:47.767Z,77.33
2022-12-23T13:40:32.962Z,77.35
2022-12-23T13:43:06.105Z,77.35
2022-12-23T13:45:37.515Z,77.41
2022-12-23T13:48:19.339Z,77.45
2022-12-23T13:50:57.078Z,77.46
2022-12-23T13:53:47.465Z,77.46
2022-12-23T13:56:27.308Z,77.40
2022-12-23T13:58:54.472Z,77.40
2022-12-23T14:01:33.091Z,77.40
2022-12-23T14:04:31.176Z,77.38
2022-12-23T14:07:21.383Z,77.47
2022-12-23T14:09:53.349Z,77.54
2022-12-23T14:12:27.221Z,77.56
2022-12-23T14:15:13.277Z,77.56
2022-12-23T14:17:48.821Z,77.56
2022-12-23T14:20:31.306Z,77.54
2022-12-23T14:23:19.184Z,77.55
2022-12-23T14:25:45.898Z,77.51
2022-12-23T14:28:44.997Z,77.55
2022-12-23T14:31:39.261Z,77.66
2022-12-23T14:34:25.153Z,77.68
2022-12-23T14:37:17.062Z,77.74
2022-12-23T14:39:44.046Z,77.77
2022-12-23T14:42:16.417Z,77.80
2022-12-23T14:44:50.224Z,77.78
2022-12-23T14:47:35.823Z,77.80
2022-12-23T14:50:42.945Z,77.84
2022-12-23T14:53:22.964Z,77.89
2022-12-23T14:55:51.836Z,77.93
2022-12-23T14:58:20.352Z,77.96
2022-12-23T15:00:50.992Z,77.98
2022-12-23T15:03:20.343Z,77.98
2022-12-23T15:05:47.599Z,78.04
2022-12-23T15:08:33.680Z,78.12
2022-12-23T15:11:00.808Z,78.16
2022-12-23T15:13:30.010Z,78.23
2022-12-23T15:16:01.338Z,78.26
2022-12-23T15:18:29.066Z,78.32
2022-12-23T15:21:04.904Z,78.37
2022-12-23T15:23:33.340Z,78.40
2022-12-23T15:26:01.492Z,78.41
2022-12-23T15:28:38.578Z,78.47
2022-12-23T15:31:06.605Z,78.53
2022-12-23T15:36:37.076Z,78.66
2022-12-23T15:39:14.079Z,78.70
2022-12-23T15:41:46.299Z,78.73
2022-12-23T15:44:18.817Z,78.78
2022-12-23T15:46:45.732Z,78.83
2022-12-23T15:49:12.873Z,78.97
2022-12-23T15:54:40.519Z,79.00
2022-12-23T15:57:07.360Z,78.98
2022-12-23T15:59:38.839Z,79.00
2022-12-23T16:05:32.259Z,79.00
2022-12-23T16:08:11.934Z,79.04
2022-12-23T16:10:39.937Z,79.11
2022-12-23T16:13:18.171Z,79.17
2022-12-23T16:15:45.511Z,79.15
2022-12-23T16:18:32.747Z,79.14
2022-12-23T16:21:02.932Z,79.13
2022-12-23T16:23:36.561Z,79.18
2022-12-23T16:26:04.241Z,79.19
2022-12-23T16:28:43.308Z,79.20
2022-12-23T16:31:11.245Z,79.18
2022-12-23T16:33:56.736Z,79.21
2022-12-23T16:36:26.495Z,79.22
2022-12-23T16:38:59.251Z,79.22
2022-12-23T16:41:26.402Z,79.17
2022-12-23T16:43:53.349Z,79.09
2022-12-23T16:46:22.745Z,79.07
2022-12-23T16:48:58.885Z,79.06
2022-12-23T16:51:28.035Z,79.00
2022-12-23T16:53:57.516Z,78.97
2022-12-23T16:56:29.895Z,78.95
2022-12-23T16:58:56.794Z,79.02
2022-12-23T17:01:27.788Z,79.05
2022-12-23T17:03:55.998Z,79.00
2022-12-23T17:06:23.399Z,79.02
2022-12-23T17:08:50.697Z,79.00
2022-12-23T17:11:23.584Z,78.98
2022-12-23T17:13:51.563Z,78.98
2022-12-23T17:16:24.385Z,78.95
2022-12-23T17:18:53.240Z,78.94
2022-12-23T17:21:36.769Z,78.95
2022-12-23T17:24:24.707Z,78.94
2022-12-23T17:26:52.482Z,78.91
2022-12-23T17:29:19.749Z,78.90
2022-12-23T17:31:48.086Z,78.92
2022-12-23T17:34:20.847Z,78.88
2022-12-23T17:36:50.647Z,78.88
2022-12-23T17:39:19.244Z,78.95
2022-12-23T17:41:46.414Z,78.95
2022-12-23T17:44:15.502Z,78.99
2022-12-23T17:46:42.499Z,79.03
2022-12-23T17:49:09.464Z,79.04
2022-12-23T17:51:37.560Z,79.06
2022-12-23T17:54:05.792Z,78.97
2022-12-23T17:56:33.045Z,79.03
2022-12-23T17:58:59.886Z,78.99
2022-12-23T18:01:30.023Z,78.99
2022-12-23T18:03:58.304Z,78.95
2022-12-23T18:06:26.633Z,78.91
2022-12-23T18:08:53.586Z,78.96
2022-12-23T18:11:29.501Z,78.93
2022-12-23T18:13:56.512Z,78.88
2022-12-23T18:16:23.390Z,78.92
2022-12-23T18:18:50.268Z,78.90
2022-12-23T18:21:27.098Z,78.92
2022-12-23T18:23:56.756Z,78.91
2022-12-23T18:26:23.903Z,78.91
2022-12-23T18:28:51.463Z,78.90
2022-12-23T18:31:24.383Z,78.89
2022-12-23T18:33:51.497Z,78.92
2022-12-23T18:36:21.048Z,78.89
2022-12-23T18:38:47.994Z,78.86
2022-12-23T18:41:14.952Z,78.94
2022-12-23T18:43:41.725Z,78.95
2022-12-23T18:46:08.625Z,78.95
2022-12-23T18:48:35.556Z,78.94
2022-12-23T18:51:02.432Z,78.89
2022-12-23T18:53:29.401Z,78.89
2022-12-23T18:55:56.302Z,78.93
2022-12-23T18:58:24.462Z,78.86
2022-12-23T19:00:52.689Z,78.85
2022-12-23T19:03:25.431Z,78.87
2022-12-23T19:05:53.792Z,78.86
2022-12-23T19:08:26.628Z,78.86
2022-12-23T19:10:55.156Z,78.85
2022-12-23T19:13:22.559Z,78.84
2022-12-23T19:15:50.020Z,78.77
2022-12-23T19:18:19.774Z,78.83
2022-12-23T19:20:48.125Z,78.81
2022-12-23T19:23:15.841Z,78.82
2022-12-23T19:25:49.143Z,78.76
2022-12-23T19:28:21.724Z,78.86
2022-12-23T19:30:48.844Z,78.77
2022-12-23T19:33:16.132Z,78.76
2022-12-23T19:35:44.003Z,78.82
2022-12-23T19:38:12.479Z,78.77
2022-12-23T19:40:40.245Z,78.77
2022-12-23T19:43:08.205Z,78.73
2022-12-23T19:45:35.089Z,78.72
2022-12-23T19:48:02.054Z,78.74
2022-12-23T19:50:28.903Z,78.77
2022-12-23T19:52:56.586Z,78.76
2022-12-23T19:55:24.211Z,78.76
2022-12-23T19:57:52.556Z,78.72
2022-12-23T20:00:20.024Z,78.69
2022-12-23T20:02:47.025Z,78.66
2022-12-23T20:05:13.847Z,78.71
2022-12-23T20:07:40.728Z,78.70
2022-12-23T20:10:08.362Z,78.71
2022-12-23T20:12:35.481Z,78.73
2022-12-23T20:15:02.499Z,78.73
2022-12-23T20:17:29.672Z,78.74
2022-12-23T20:19:56.845Z,78.73
2022-12-23T20:22:42.643Z,78.74
2022-12-23T20:25:09.927Z,78.73
2022-12-23T20:27:38.809Z,78.72
2022-12-23T20:30:06.497Z,78.75
2022-12-23T20:32:33.296Z,78.72
2022-12-23T20:35:00.332Z,78.75
2022-12-23T20:37:27.192Z,78.77
2022-12-23T20:39:54.270Z,78.75
2022-12-23T20:42:21.475Z,78.74
2022-12-23T20:44:48.811Z,78.79
2022-12-23T20:47:15.973Z,78.85
2022-12-23T20:49:42.891Z,78.85
2022-12-23T20:52:09.663Z,78.80
2022-12-23T20:54:36.787Z,78.80
2022-12-23T20:57:03.988Z,78.82
2022-12-23T20:59:30.916Z,78.81
2022-12-23T21:01:59.369Z,78.78
2022-12-23T21:04:26.629Z,78.76
2022-12-23T21:06:53.788Z,78.74
2022-12-23T21:09:20.673Z,78.71
2022-12-23T21:11:47.958Z,78.67
2022-12-23T21:14:16.285Z,78.63
2022-12-23T21:16:43.409Z,78.71
2022-12-23T21:19:18.380Z,78.62
2022-12-23T21:21:45.998Z,78.58
2022-12-23T21:24:13.022Z,78.55
2022-12-23T21:26:40.081Z,78.53
2022-12-23T21:29:08.844Z,78.48
2022-12-23T21:31:39.263Z,78.49
2022-12-23T21:34:07.295Z,78.46
2022-12-23T21:36:37.431Z,78.43
2022-12-23T21:39:06.117Z,78.43
2022-12-23T21:41:38.346Z,78.45
2022-12-23T21:44:06.470Z,78.44
2022-12-23T21:46:33.679Z,78.41
2022-12-23T21:49:00.624Z,78.40
2022-12-23T21:51:36.928Z,78.28
2022-12-23T21:54:07.457Z,78.26
2022-12-23T21:56:34.298Z,78.29
2022-12-23T21:59:06.155Z,78.25
2022-12-23T22:01:33.619Z,78.26
2022-12-23T22:04:00.572Z,78.37
2022-12-23T22:06:30.427Z,78.33
2022-12-23T22:08:57.845Z,78.31
2022-12-23T22:11:27.179Z,78.34
2022-12-23T22:13:56.257Z,78.28
2022-12-23T22:16:24.795Z,78.27
2022-12-23T22:18:52.485Z,78.24
2022-12-23T22:21:23.035Z,78.35
2022-12-23T22:23:51.993Z,78.33
2022-12-23T22:26:25.125Z,78.32
2022-12-23T22:28:55.277Z,78.34
2022-12-23T22:31:39.978Z,78.38
2022-12-23T22:34:08.241Z,78.37
2022-12-23T22:36:35.229Z,78.38
2022-12-23T22:39:02.513Z,78.38
2022-12-23T22:41:30.802Z,78.40
2022-12-23T22:43:58.472Z,78.46
2022-12-23T22:46:25.971Z,78.47
2022-12-23T22:48:53.591Z,78.47
2022-12-23T22:51:23.819Z,78.49
2022-12-23T22:53:50.744Z,78.48
2022-12-23T22:56:19.462Z,78.50
2022-12-23T22:58:46.997Z,78.50
2022-12-23T23:01:25.829Z,78.49
2022-12-23T23:03:57.518Z,78.47
2022-12-23T23:06:28.342Z,78.46
2022-12-23T23:08:55.851Z,78.48
2022-12-23T23:11:23.692Z,78.46
2022-12-23T23:13:50.882Z,78.45
2022-12-23T23:16:17.825Z,78.45
2022-12-23T23:18:44.730Z,78.49
2022-12-23T23:21:13.193Z,78.51
2022-12-23T23:23:40.316Z,78.53
2022-12-23T23:26:10.237Z,78.50
2022-12-23T23:28:40.570Z,78.51
2022-12-23T23:33:55.425Z,78.51
2022-12-23T23:36:22.278Z,78.52
2022-12-23T23:38:49.077Z,78.46
2022-12-23T23:41:20.742Z,78.49
2022-12-23T23:43:50.339Z,78.46
2022-12-23T23:46:17.242Z,78.49
2022-12-23T23:48:44.109Z,78.46
2022-12-23T23:51:11.001Z,78.48
2022-12-23T23:53:38.017Z,78.49
2022-12-23T23:56:06.933Z,78.47
2022-12-23T23:58:34.190Z,78.47
